sensor_id;sensor_type;location;lat;lon;timestamp;pressure;altitude;pressure_sealevel;temperature;humidity
76590;BME280;65471;55.908;37.880;2023-04-01T00:01:31;98395.88;;;1.23;86.66
76590;BME280;65471;55.908;37.880;2023-04-01T00:03:57;98388.75;;;1.23;87.04
76590;BME280;65471;55.908;37.880;2023-04-01T00:06:27;98384.22;;;1.24;87.03
76590;BME280;65471;55.908;37.880;2023-04-01T00:08:54;98386.09;;;1.23;86.67
76590;BME280;65471;55.908;37.880;2023-04-01T00:11:21;98375.84;;;1.20;87.10
76590;BME280;65471;55.908;37.880;2023-04-01T00:13:48;98385.25;;;1.23;87.23
76590;BME280;65471;55.908;37.880;2023-04-01T00:16:15;98386.09;;;1.23;87.10
76590;BME280;65471;55.908;37.880;2023-04-01T00:18:44;98383.63;;;1.22;87.18
76590;BME280;65471;55.908;37.880;2023-04-01T00:21:14;98382.78;;;1.21;87.46
76590;BME280;65471;55.908;37.880;2023-04-01T00:23:41;98379.31;;;1.20;87.25
76590;BME280;65471;55.908;37.880;2023-04-01T00:26:09;98386.09;;;1.23;87.70
76590;BME280;65471;55.908;37.880;2023-04-01T00:28:36;98381.78;;;1.22;87.44
76590;BME280;65471;55.908;37.880;2023-04-01T00:31:07;98379.09;;;1.22;87.05
76590;BME280;65471;55.908;37.880;2023-04-01T00:33:34;98383.84;;;1.20;87.42
76590;BME280;65471;55.908;37.880;2023-04-01T00:36:14;98385.88;;;1.18;87.23
76590;BME280;65471;55.908;37.880;2023-04-01T00:38:41;98386.06;;;1.16;87.03
76590;BME280;65471;55.908;37.880;2023-04-01T00:41:11;98378.94;;;1.17;87.23
76590;BME280;65471;55.908;37.880;2023-04-01T00:43:43;98388.53;;;1.18;87.24
76590;BME280;65471;55.908;37.880;2023-04-01T00:46:10;98383.19;;;1.18;87.74
76590;BME280;65471;55.908;37.880;2023-04-01T00:48:54;98374.19;;;1.19;87.80
76590;BME280;65471;55.908;37.880;2023-04-01T00:51:27;98379.53;;;1.19;87.20
76590;BME280;65471;55.908;37.880;2023-04-01T00:53:58;98378.94;;;1.17;87.89
76590;BME280;65471;55.908;37.880;2023-04-01T00:59:11;98375.44;;;1.16;87.50
76590;BME280;65471;55.908;37.880;2023-04-01T01:01:41;98378.94;;;1.17;87.23
76590;BME280;65471;55.908;37.880;2023-04-01T01:04:24;98376.25;;;1.17;87.00
76590;BME280;65471;55.908;37.880;2023-04-01T01:18:27;98383.03;;;1.13;87.55
76590;BME280;65471;55.908;37.880;2023-04-01T01:21:17;98375.41;;;1.10;87.44
76590;BME280;65471;55.908;37.880;2023-04-01T01:24:28;98377.06;;;1.11;87.67
76590;BME280;65471;55.908;37.880;2023-04-01T01:32:44;98375.25;;;1.11;88.17
76590;BME280;65471;55.908;37.880;2023-04-01T01:38:09;98369.28;;;1.09;87.57
76590;BME280;65471;55.908;37.880;2023-04-01T01:40:40;98377.06;;;1.11;87.60
76590;BME280;65471;55.908;37.880;2023-04-01T01:43:10;98375.41;;;1.10;87.97
76590;BME280;65471;55.908;37.880;2023-04-01T01:45:43;98374.19;;;1.12;87.42
76590;BME280;65471;55.908;37.880;2023-04-01T01:48:11;98378.50;;;1.13;87.40
76590;BME280;65471;55.908;37.880;2023-04-01T01:50:39;98376.66;;;1.14;87.41
76590;BME280;65471;55.908;37.880;2023-04-01T01:53:10;98376.66;;;1.14;87.38
76590;BME280;65471;55.908;37.880;2023-04-01T01:55:39;98372.16;;;1.14;87.55
76590;BME280;65471;55.908;37.880;2023-04-01T01:58:17;98370.31;;;1.15;87.75
76590;BME280;65471;55.908;37.880;2023-04-01T02:00:50;98378.50;;;1.13;87.66
76590;BME280;65471;55.908;37.880;2023-04-01T02:03:20;98376.84;;;1.12;87.39
76590;BME280;65471;55.908;37.880;2023-04-01T02:05:50;98378.72;;;1.12;87.45
76590;BME280;65471;55.908;37.880;2023-04-01T02:08:42;98386.91;;;1.10;87.48
76590;BME280;65471;55.908;37.880;2023-04-01T02:11:12;98383.41;;;1.10;87.89
76590;BME280;65471;55.908;37.880;2023-04-01T02:13:48;98379.94;;;1.09;87.10
76590;BME280;65471;55.908;37.880;2023-04-01T02:16:45;98392.22;;;1.10;87.86
76590;BME280;65471;55.908;37.880;2023-04-01T02:19:15;98389.97;;;1.07;87.68
76590;BME280;65471;55.908;37.880;2023-04-01T02:21:52;98395.91;;;1.09;88.10
76590;BME280;65471;55.908;37.880;2023-04-01T02:24:23;98394.03;;;1.10;88.09
76590;BME280;65471;55.908;37.880;2023-04-01T02:26:52;98391.38;;;1.10;87.57
76590;BME280;65471;55.908;37.880;2023-04-01T02:29:20;98398.56;;;1.09;87.57
76590;BME280;65471;55.908;37.880;2023-04-01T02:31:48;98399.56;;;1.08;87.58
76590;BME280;65471;55.908;37.880;2023-04-01T02:34:16;98403.66;;;1.04;87.64
76590;BME280;65471;55.908;37.880;2023-04-01T02:36:43;98411.84;;;1.02;87.95
76590;BME280;65471;55.908;37.880;2023-04-01T02:39:10;98414.31;;;1.04;87.90
76590;BME280;65471;55.908;37.880;2023-04-01T02:41:42;98411.66;;;1.04;88.24
76590;BME280;65471;55.908;37.880;2023-04-01T02:44:11;98409.84;;;1.05;87.89
76590;BME280;65471;55.908;37.880;2023-04-01T02:46:38;98406.97;;;1.06;87.90
76590;BME280;65471;55.908;37.880;2023-04-01T02:49:06;98404.91;;;1.01;87.74
76590;BME280;65471;55.908;37.880;2023-04-01T02:51:33;98407.38;;;1.03;87.59
76590;BME280;65471;55.908;37.880;2023-04-01T02:54:00;98405.53;;;1.03;87.87
76590;BME280;65471;55.908;37.880;2023-04-01T02:56:27;98402.44;;;1.07;87.64
76590;BME280;65471;55.908;37.880;2023-04-01T02:58:54;98395.50;;;1.06;87.77
76590;BME280;65471;55.908;37.880;2023-04-01T03:01:22;98397.13;;;1.07;87.87
76590;BME280;65471;55.908;37.880;2023-04-01T03:03:49;98387.91;;;1.09;88.23
76590;BME280;65471;55.908;37.880;2023-04-01T03:06:16;98400.00;;;1.12;88.00
76590;BME280;65471;55.908;37.880;2023-04-01T03:08:44;98388.56;;;1.11;88.00
76590;BME280;65471;55.908;37.880;2023-04-01T03:11:11;98403.91;;;1.16;87.30
76590;BME280;65471;55.908;37.880;2023-04-01T03:13:38;98397.75;;;1.15;88.12
76590;BME280;65471;55.908;37.880;2023-04-01T03:16:05;98404.50;;;1.18;88.54
76590;BME280;65471;55.908;37.880;2023-04-01T03:18:32;98408.22;;;1.17;87.88
76590;BME280;65471;55.908;37.880;2023-04-01T03:21:19;98412.06;;;1.21;87.73
76590;BME280;65471;55.908;37.880;2023-04-01T03:23:46;98411.06;;;1.22;88.27
76590;BME280;65471;55.908;37.880;2023-04-01T03:26:13;98413.50;;;1.24;88.34
76590;BME280;65471;55.908;37.880;2023-04-01T03:28:40;98417.81;;;1.25;87.31
76590;BME280;65471;55.908;37.880;2023-04-01T03:31:07;98425.41;;;1.28;87.58
76590;BME280;65471;55.908;37.880;2023-04-01T03:33:34;98430.72;;;1.28;87.57
76590;BME280;65471;55.908;37.880;2023-04-01T03:36:01;98428.06;;;1.28;87.95
76590;BME280;65471;55.908;37.880;2023-04-01T03:38:29;98425.19;;;1.29;87.87
76590;BME280;65471;55.908;37.880;2023-04-01T03:40:56;98426.84;;;1.30;87.42
76590;BME280;65471;55.908;37.880;2023-04-01T03:43:23;98435.22;;;1.34;87.53
76590;BME280;65471;55.908;37.880;2023-04-01T03:45:51;98433.19;;;1.36;87.90
76590;BME280;65471;55.908;37.880;2023-04-01T03:48:18;98431.97;;;1.38;87.71
76590;BME280;65471;55.908;37.880;2023-04-01T03:50:45;98430.31;;;1.37;87.64
76590;BME280;65471;55.908;37.880;2023-04-01T03:53:12;98444.66;;;1.36;87.54
76590;BME280;65471;55.908;37.880;2023-04-01T03:55:39;98443.03;;;1.35;87.02
76590;BME280;65471;55.908;37.880;2023-04-01T03:58:07;98439.31;;;1.36;87.58
76590;BME280;65471;55.908;37.880;2023-04-01T04:00:34;98437.06;;;1.33;87.60
76590;BME280;65471;55.908;37.880;2023-04-01T04:03:01;98444.03;;;1.34;87.71
76590;BME280;65471;55.908;37.880;2023-04-01T04:05:28;98438.72;;;1.34;87.32
76590;BME280;65471;55.908;37.880;2023-04-01T04:07:55;98441.38;;;1.34;87.23
76590;BME280;65471;55.908;37.880;2023-04-01T04:10:22;98446.50;;;1.36;87.38
76590;BME280;65471;55.908;37.880;2023-04-01T04:12:50;98456.13;;;1.37;87.61
76590;BME280;65471;55.908;37.880;2023-04-01T04:15:17;98460.22;;;1.40;87.73
76590;BME280;65471;55.908;37.880;2023-04-01T04:17:45;98460.03;;;1.41;87.79
76590;BME280;65471;55.908;37.880;2023-04-01T04:20:12;98462.69;;;1.41;88.00
76590;BME280;65471;55.908;37.880;2023-04-01T04:22:39;98465.75;;;1.45;87.75
76590;BME280;65471;55.908;37.880;2023-04-01T04:25:07;98471.88;;;1.45;88.01
76590;BME280;65471;55.908;37.880;2023-04-01T04:27:34;98468.22;;;1.46;87.15
76590;BME280;65471;55.908;37.880;2023-04-01T04:30:02;98463.50;;;1.48;86.92
76590;BME280;65471;55.908;37.880;2023-04-01T04:32:30;98468.63;;;1.50;87.39
76590;BME280;65471;55.908;37.880;2023-04-01T04:34:57;98475.78;;;1.49;87.49
76590;BME280;65471;55.908;37.880;2023-04-01T04:37:24;98480.69;;;1.52;87.74
76590;BME280;65471;55.908;37.880;2023-04-01T04:39:52;98476.22;;;1.53;87.71
76590;BME280;65471;55.908;37.880;2023-04-01T04:42:19;98480.69;;;1.52;86.94
76590;BME280;65471;55.908;37.880;2023-04-01T04:44:46;98488.50;;;1.54;87.45
76590;BME280;65471;55.908;37.880;2023-04-01T04:47:13;98489.31;;;1.54;87.61
76590;BME280;65471;55.908;37.880;2023-04-01T04:49:40;98488.50;;;1.54;87.43
76590;BME280;65471;55.908;37.880;2023-04-01T04:52:07;98490.97;;;1.55;87.46
76590;BME280;65471;55.908;37.880;2023-04-01T04:54:34;98492.00;;;1.54;87.15
76590;BME280;65471;55.908;37.880;2023-04-01T04:57:01;98496.09;;;1.57;87.53
76590;BME280;65471;55.908;37.880;2023-04-01T04:59:28;98501.41;;;1.57;87.59
76590;BME280;65471;55.908;37.880;2023-04-01T05:01:55;98499.16;;;1.61;87.24
76590;BME280;65471;55.908;37.880;2023-04-01T05:04:21;98500.78;;;1.62;87.31
76590;BME280;65471;55.908;37.880;2023-04-01T05:06:48;98485.63;;;1.55;87.09
76590;BME280;65471;55.908;37.880;2023-04-01T05:09:15;98496.50;;;1.67;87.24
76590;BME280;65471;55.908;37.880;2023-04-01T05:11:42;98505.94;;;1.70;86.95
76590;BME280;65471;55.908;37.880;2023-04-01T05:14:14;98506.31;;;1.73;87.72
76590;BME280;65471;55.908;37.880;2023-04-01T05:16:41;98516.38;;;1.78;86.94
76590;BME280;65471;55.908;37.880;2023-04-01T05:19:07;98519.66;;;1.80;87.70
76590;BME280;65471;55.908;37.880;2023-04-01T05:21:34;98513.91;;;1.83;87.17
76590;BME280;65471;55.908;37.880;2023-04-01T05:24:01;98515.13;;;1.87;87.36
76590;BME280;65471;55.908;37.880;2023-04-01T05:26:28;98519.44;;;1.88;87.06
76590;BME280;65471;55.908;37.880;2023-04-01T05:28:55;98521.69;;;1.92;87.27
76590;BME280;65471;55.908;37.880;2023-04-01T05:31:22;98514.50;;;1.92;86.98
76590;BME280;65471;55.908;37.880;2023-04-01T05:33:51;98509.81;;;1.94;86.33
76590;BME280;65471;55.908;37.880;2023-04-01T05:36:17;98502.63;;;1.95;86.67
76590;BME280;65471;55.908;37.880;2023-04-01T05:38:44;98513.06;;;1.96;86.99
76590;BME280;65471;55.908;37.880;2023-04-01T05:41:15;98513.06;;;1.96;86.33
76590;BME280;65471;55.908;37.880;2023-04-01T05:43:42;98516.38;;;1.98;86.88
76590;BME280;65471;55.908;37.880;2023-04-01T05:46:09;98509.59;;;2.02;86.75
76590;BME280;65471;55.908;37.880;2023-04-01T05:48:36;98504.84;;;2.04;87.11
76590;BME280;65471;55.908;37.880;2023-04-01T05:51:04;98506.69;;;2.11;86.40
76590;BME280;65471;55.908;37.880;2023-04-01T05:53:31;98515.09;;;2.14;86.86
76590;BME280;65471;55.908;37.880;2023-04-01T05:56:01;98520.00;;;2.17;86.85
76590;BME280;65471;55.908;37.880;2023-04-01T05:58:29;98524.94;;;2.20;87.11
76590;BME280;65471;55.908;37.880;2023-04-01T06:01:04;98527.38;;;2.22;86.21
76590;BME280;65471;55.908;37.880;2023-04-01T06:03:38;98540.28;;;2.25;86.67
76590;BME280;65471;55.908;37.880;2023-04-01T06:06:13;98529.63;;;2.25;86.36
76590;BME280;65471;55.908;37.880;2023-04-01T06:08:41;98538.44;;;2.32;86.96
76590;BME280;65471;55.908;37.880;2023-04-01T06:14:10;98536.97;;;2.43;86.19
76590;BME280;65471;55.908;37.880;2023-04-01T06:16:49;98542.91;;;2.45;86.34
76590;BME280;65471;55.908;37.880;2023-04-01T06:33:14;98548.66;;;2.55;86.00
76590;BME280;65471;55.908;37.880;2023-04-01T06:41:50;98558.28;;;2.56;86.43
76590;BME280;65471;55.908;37.880;2023-04-01T06:44:40;98556.03;;;2.60;85.81
76590;BME280;65471;55.908;37.880;2023-04-01T06:47:26;98563.38;;;2.65;85.90
76590;BME280;65471;55.908;37.880;2023-04-01T06:53:20;98570.75;;;2.76;85.59
76590;BME280;65471;55.908;37.880;2023-04-01T06:55:52;98561.06;;;2.82;86.18
76590;BME280;65471;55.908;37.880;2023-04-01T06:58:29;98576.06;;;2.89;85.88
76590;BME280;65471;55.908;37.880;2023-04-01T07:01:00;98571.28;;;2.98;86.08
76590;BME280;65471;55.908;37.880;2023-04-01T07:06:03;98567.69;;;3.18;85.59
76590;BME280;65471;55.908;37.880;2023-04-01T07:08:34;98553.72;;;3.22;85.74
76590;BME280;65471;55.908;37.880;2023-04-01T07:11:04;98569.28;;;3.32;85.08
76590;BME280;65471;55.908;37.880;2023-04-01T07:13:47;98565.94;;;3.37;85.47
76590;BME280;65471;55.908;37.880;2023-04-01T07:16:43;98568.00;;;3.35;85.06
76590;BME280;65471;55.908;37.880;2023-04-01T07:21:51;98580.75;;;3.39;85.79
76590;BME280;65471;55.908;37.880;2023-04-01T07:24:32;98584.63;;;3.43;85.71
76590;BME280;65471;55.908;37.880;2023-04-01T07:27:00;98578.41;;;3.50;85.12
76590;BME280;65471;55.908;37.880;2023-04-01T07:29:27;98585.19;;;3.52;85.07
76590;BME280;65471;55.908;37.880;2023-04-01T07:48:48;98584.63;;;3.75;84.63
76590;BME280;65471;55.908;37.880;2023-04-01T07:59:40;98595.59;;;3.92;84.58
76590;BME280;65471;55.908;37.880;2023-04-01T08:02:25;98614.19;;;4.06;84.62
76590;BME280;65471;55.908;37.880;2023-04-01T08:05:12;98605.72;;;4.09;84.60
76590;BME280;65471;55.908;37.880;2023-04-01T08:18:41;98617.78;;;3.93;84.02
76590;BME280;65471;55.908;37.880;2023-04-01T08:21:20;98623.97;;;3.93;84.21
76590;BME280;65471;55.908;37.880;2023-04-01T08:23:51;98620.25;;;3.94;84.61
76590;BME280;65471;55.908;37.880;2023-04-01T08:29:01;98627.34;;;4.07;84.32
76590;BME280;65471;55.908;37.880;2023-04-01T08:31:58;98626.72;;;4.12;84.00
76590;BME280;65471;55.908;37.880;2023-04-01T08:37:39;98639.16;;;4.25;84.08
76590;BME280;65471;55.908;37.880;2023-04-01T08:48:06;98632.03;;;4.62;83.86
76590;BME280;65471;55.908;37.880;2023-04-01T08:56:19;98636.72;;;4.67;83.76
76590;BME280;65471;55.908;37.880;2023-04-01T09:10:42;98635.59;;;5.49;83.00
76590;BME280;65471;55.908;37.880;2023-04-01T09:13:29;98647.13;;;5.49;82.17
76590;BME280;65471;55.908;37.880;2023-04-01T09:19:14;98641.00;;;5.73;81.86
76590;BME280;65471;55.908;37.880;2023-04-01T09:30:56;98659.84;;;5.84;80.92
76590;BME280;65471;55.908;37.880;2023-04-01T09:36:07;98665.78;;;5.86;81.26
76590;BME280;65471;55.908;37.880;2023-04-01T09:39:17;98666.25;;;6.14;80.81
76590;BME280;65471;55.908;37.880;2023-04-01T09:44:37;98668.31;;;6.00;79.67
76590;BME280;65471;55.908;37.880;2023-04-01T10:15:27;98682.78;;;7.53;73.62
76590;BME280;65471;55.908;37.880;2023-04-01T10:40:36;98718.47;;;7.36;75.91
76590;BME280;65471;55.908;37.880;2023-04-01T10:43:23;98725.59;;;7.54;75.44
76590;BME280;65471;55.908;37.880;2023-04-01T10:54:21;98719.25;;;7.89;73.64
76590;BME280;65471;55.908;37.880;2023-04-01T10:57:01;98716.28;;;7.74;73.18
76590;BME280;65471;55.908;37.880;2023-04-01T11:19:49;98711.28;;;7.66;72.73
76590;BME280;65471;55.908;37.880;2023-04-01T11:22:24;98720.31;;;7.48;73.11
76590;BME280;65471;55.908;37.880;2023-04-01T11:36:33;98710.28;;;8.12;71.03
76590;BME280;65471;55.908;37.880;2023-04-01T11:44:51;98712.97;;;8.12;69.12
76590;BME280;65471;55.908;37.880;2023-04-01T11:47:42;98717.22;;;7.97;68.73
76590;BME280;65471;55.908;37.880;2023-04-01T12:01:24;98720.41;;;8.22;66.71
76590;BME280;65471;55.908;37.880;2023-04-01T12:06:49;98735.66;;;8.17;62.95
76590;BME280;65471;55.908;37.880;2023-04-01T12:09:29;98728.53;;;8.10;61.44
76590;BME280;65471;55.908;37.880;2023-04-01T12:21:25;98742.41;;;8.19;59.92
76590;BME280;65471;55.908;37.880;2023-04-01T12:26:52;98741.97;;;8.22;58.37
76590;BME280;65471;55.908;37.880;2023-04-01T12:43:10;98743.38;;;8.13;57.34
76590;BME280;65471;55.908;37.880;2023-04-01T12:49:33;98740.38;;;8.09;58.01
76590;BME280;65471;55.908;37.880;2023-04-01T12:52:07;98741.09;;;8.05;58.81
76590;BME280;65471;55.908;37.880;2023-04-01T12:55:55;98743.44;;;8.01;59.45
76590;BME280;65471;55.908;37.880;2023-04-01T13:03:52;98766.22;;;7.82;60.33
76590;BME280;65471;55.908;37.880;2023-04-01T13:06:27;98772.56;;;7.75;60.78
76590;BME280;65471;55.908;37.880;2023-04-01T13:11:54;98764.13;;;7.72;60.81
76590;BME280;65471;55.908;37.880;2023-04-01T13:20:29;98773.41;;;7.64;61.86
76590;BME280;65471;55.908;37.880;2023-04-01T13:26:13;98771.47;;;7.76;60.80
76590;BME280;65471;55.908;37.880;2023-04-01T13:28:53;98766.69;;;7.78;61.66
76590;BME280;65471;55.908;37.880;2023-04-01T13:31:26;98775.56;;;7.79;61.44
76590;BME280;65471;55.908;37.880;2023-04-01T13:42:18;98791.72;;;7.79;61.84
76590;BME280;65471;55.908;37.880;2023-04-01T13:53:19;98801.47;;;7.56;62.99
76590;BME280;65471;55.908;37.880;2023-04-01T13:55:53;98798.69;;;7.39;63.87
76590;BME280;65471;55.908;37.880;2023-04-01T14:06:35;98799.06;;;7.31;64.32
76590;BME280;65471;55.908;37.880;2023-04-01T14:15:08;98817.50;;;7.28;63.50
76590;BME280;65471;55.908;37.880;2023-04-01T14:23:26;98817.03;;;7.07;64.49
76590;BME280;65471;55.908;37.880;2023-04-01T14:31:54;98829.41;;;6.84;65.43
76590;BME280;65471;55.908;37.880;2023-04-01T14:48:51;98842.19;;;6.59;66.40
76590;BME280;65471;55.908;37.880;2023-04-01T14:54:05;98849.63;;;6.56;66.94
76590;BME280;65471;55.908;37.880;2023-04-01T14:56:45;98858.84;;;6.49;67.36
76590;BME280;65471;55.908;37.880;2023-04-01T14:59:25;98853.69;;;6.47;67.15
76590;BME280;65471;55.908;37.880;2023-04-01T15:02:18;98867.44;;;6.39;67.96
76590;BME280;65471;55.908;37.880;2023-04-01T15:13:15;98880.88;;;6.02;69.87
76590;BME280;65471;55.908;37.880;2023-04-01T15:21:29;98900.00;;;5.87;71.19
76590;BME280;65471;55.908;37.880;2023-04-01T15:29:54;98893.28;;;5.78;72.11
76590;BME280;65471;55.908;37.880;2023-04-01T15:32:47;98904.09;;;5.71;72.57
76590;BME280;65471;55.908;37.880;2023-04-01T15:35:24;98894.69;;;5.62;72.88
76590;BME280;65471;55.908;37.880;2023-04-01T15:52:19;98909.22;;;5.29;75.36
76590;BME280;65471;55.908;37.880;2023-04-01T16:02:48;98930.25;;;5.25;76.73
76590;BME280;65471;55.908;37.880;2023-04-01T16:10:19;98938.78;;;5.15;77.38
76590;BME280;65471;55.908;37.880;2023-04-01T16:18:22;98950.34;;;5.16;78.50
76590;BME280;65471;55.908;37.880;2023-04-01T16:21:01;98960.84;;;5.17;78.78
76590;BME280;65471;55.908;37.880;2023-04-01T16:23:38;98960.84;;;5.17;79.04
76590;BME280;65471;55.908;37.880;2023-04-01T16:26:15;98970.25;;;5.27;79.99
76590;BME280;65471;55.908;37.880;2023-04-01T16:31:37;98970.66;;;5.30;79.94
76590;BME280;65471;55.908;37.880;2023-04-01T16:37:20;98966.75;;;5.26;80.12
76590;BME280;65471;55.908;37.880;2023-04-01T16:42:46;98975.63;;;5.20;80.60
76590;BME280;65471;55.908;37.880;2023-04-01T16:45:42;98975.25;;;5.16;80.76
76590;BME280;65471;55.908;37.880;2023-04-01T16:48:10;98984.38;;;5.09;80.52
76590;BME280;65471;55.908;37.880;2023-04-01T16:50:59;98985.88;;;5.05;80.98
76590;BME280;65471;55.908;37.880;2023-04-01T16:53:41;98988.56;;;4.98;81.10
76590;BME280;65471;55.908;37.880;2023-04-01T16:56:17;98985.25;;;4.96;81.21
76590;BME280;65471;55.908;37.880;2023-04-01T16:59:02;98987.56;;;4.92;81.39
76590;BME280;65471;55.908;37.880;2023-04-01T17:07:28;98987.03;;;4.77;81.87
76590;BME280;65471;55.908;37.880;2023-04-01T17:15:52;98994.25;;;4.70;82.52
76590;BME280;65471;55.908;37.880;2023-04-01T17:29:55;98996.78;;;4.58;83.24
76590;BME280;65471;55.908;37.880;2023-04-01T17:35:12;98999.91;;;4.55;83.20
76590;BME280;65471;55.908;37.880;2023-04-01T17:45:57;99000.50;;;4.50;83.96
76590;BME280;65471;55.908;37.880;2023-04-01T17:48:52;98996.59;;;4.46;83.74
76590;BME280;65471;55.908;37.880;2023-04-01T17:51:36;99001.38;;;4.44;83.77
76590;BME280;65471;55.908;37.880;2023-04-01T17:57:10;99012.28;;;4.49;84.01
76590;BME280;65471;55.908;37.880;2023-04-01T17:59:37;99015.75;;;4.49;84.49
76590;BME280;65471;55.908;37.880;2023-04-01T18:05:01;99009.78;;;4.47;84.52
76590;BME280;65471;55.908;37.880;2023-04-01T18:23:56;99029.19;;;4.36;85.43
76590;BME280;65471;55.908;37.880;2023-04-01T18:26:33;99026.69;;;4.35;85.27
76590;BME280;65471;55.908;37.880;2023-04-01T18:31:48;99036.59;;;4.41;85.52
76590;BME280;65471;55.908;37.880;2023-04-01T18:34:39;99030.38;;;4.40;85.77
76590;BME280;65471;55.908;37.880;2023-04-01T18:37:51;99027.31;;;4.37;85.56
76590;BME280;65471;55.908;37.880;2023-04-01T18:45:51;99036.94;;;4.58;86.21
76590;BME280;65471;55.908;37.880;2023-04-01T18:54:17;99050.50;;;4.63;86.66
76590;BME280;65471;55.908;37.880;2023-04-01T18:56:48;99051.13;;;4.65;87.06
76590;BME280;65471;55.908;37.880;2023-04-01T19:02:50;99056.66;;;4.77;87.10
76590;BME280;65471;55.908;37.880;2023-04-01T19:07:54;99070.59;;;4.92;87.30
76590;BME280;65471;55.908;37.880;2023-04-01T19:19:05;99079.81;;;5.10;86.93
76590;BME280;65471;55.908;37.880;2023-04-01T19:32:33;99087.47;;;5.06;86.96
76590;BME280;65471;55.908;37.880;2023-04-01T19:35:19;99081.66;;;5.16;87.06
76590;BME280;65471;55.908;37.880;2023-04-01T19:37:57;99082.66;;;5.22;87.03
76590;BME280;65471;55.908;37.880;2023-04-01T19:43:03;99073.63;;;5.09;87.08
76590;BME280;65471;55.908;37.880;2023-04-01T20:02:39;99098.91;;;5.27;86.76
76590;BME280;65471;55.908;37.880;2023-04-01T20:16:55;99101.81;;;5.18;86.71
76590;BME280;65471;55.908;37.880;2023-04-01T20:19:36;99095.84;;;5.16;86.54
76590;BME280;65471;55.908;37.880;2023-04-01T20:25:08;99099.41;;;5.10;86.44
76590;BME280;65471;55.908;37.880;2023-04-01T20:27:45;99101.03;;;5.11;86.70
76590;BME280;65471;55.908;37.880;2023-04-01T20:41:25;99114.47;;;5.05;86.62
76590;BME280;65471;55.908;37.880;2023-04-01T20:44:09;99113.84;;;5.03;86.63
76590;BME280;65471;55.908;37.880;2023-04-01T20:49:33;99102.53;;;5.00;86.49
76590;BME280;65471;55.908;37.880;2023-04-01T21:11:10;99098.97;;;5.13;87.12
76590;BME280;65471;55.908;37.880;2023-04-01T21:14:00;99117.09;;;5.18;86.75
76590;BME280;65471;55.908;37.880;2023-04-01T21:16:35;99114.00;;;5.14;86.87
76590;BME280;65471;55.908;37.880;2023-04-01T21:28:28;99106.78;;;5.15;87.05
76590;BME280;65471;55.908;37.880;2023-04-01T21:36:24;99125.94;;;5.18;87.17
76590;BME280;65471;55.908;37.880;2023-04-01T21:38:57;99142.22;;;5.17;87.46
76590;BME280;65471;55.908;37.880;2023-04-01T21:41:48;99134.41;;;5.15;87.07
76590;BME280;65471;55.908;37.880;2023-04-01T21:44:36;99148.22;;;5.12;87.24
76590;BME280;65471;55.908;37.880;2023-04-01T22:07:17;99161.06;;;4.97;87.38
76590;BME280;65471;55.908;37.880;2023-04-01T22:15:14;99161.69;;;4.86;87.50
76590;BME280;65471;55.908;37.880;2023-04-01T22:17:52;99156.13;;;4.87;87.54
76590;BME280;65471;55.908;37.880;2023-04-01T22:20:33;99154.88;;;4.90;87.55
76590;BME280;65471;55.908;37.880;2023-04-01T22:23:32;99153.25;;;4.89;87.50
76590;BME280;65471;55.908;37.880;2023-04-01T22:31:11;99155.94;;;4.82;87.07
76590;BME280;65471;55.908;37.880;2023-04-01T22:44:00;99152.84;;;4.72;87.22
76590;BME280;65471;55.908;37.880;2023-04-01T22:52:08;99154.72;;;4.84;87.44
76590;BME280;65471;55.908;37.880;2023-04-01T22:54:52;99170.38;;;4.88;87.49
76590;BME280;65471;55.908;37.880;2023-04-01T22:57:40;99164.16;;;4.87;87.32
76590;BME280;65471;55.908;37.880;2023-04-01T23:00:22;99172.00;;;4.89;87.58
76590;BME280;65471;55.908;37.880;2023-04-01T23:03:16;99167.69;;;4.88;87.66
76590;BME280;65471;55.908;37.880;2023-04-01T23:05:57;99171.38;;;4.87;87.51
76590;BME280;65471;55.908;37.880;2023-04-01T23:08:38;99164.78;;;4.89;87.86
76590;BME280;65471;55.908;37.880;2023-04-01T23:11:12;99156.34;;;4.92;87.73
76590;BME280;65471;55.908;37.880;2023-04-01T23:13:45;99161.25;;;4.95;87.76
76590;BME280;65471;55.908;37.880;2023-04-01T23:16:15;99159.59;;;5.01;88.05
76590;BME280;65471;55.908;37.880;2023-04-01T23:18:57;99166.81;;;5.00;88.04
76590;BME280;65471;55.908;37.880;2023-04-01T23:21:54;99171.97;;;5.02;87.82
76590;BME280;65471;55.908;37.880;2023-04-01T23:24:30;99163.50;;;5.05;87.94
76590;BME280;65471;55.908;37.880;2023-04-01T23:27:20;99180.00;;;5.02;87.77
76590;BME280;65471;55.908;37.880;2023-04-01T23:29:49;99172.41;;;4.99;87.69
76590;BME280;65471;55.908;37.880;2023-04-01T23:32:18;99179.16;;;5.01;87.69
76590;BME280;65471;55.908;37.880;2023-04-01T23:34:51;99170.09;;;5.03;87.92
76590;BME280;65471;55.908;37.880;2023-04-01T23:37:20;99178.16;;;5.03;87.96
76590;BME280;65471;55.908;37.880;2023-04-01T23:40:12;99176.09;;;4.98;87.75
76590;BME280;65471;55.908;37.880;2023-04-01T23:42:41;99175.28;;;4.97;87.74
76590;BME280;65471;55.908;37.880;2023-04-01T23:45:14;99179.00;;;4.96;87.91
76590;BME280;65471;55.908;37.880;2023-04-01T23:47:45;99175.88;;;4.99;87.99
76590;BME280;65471;55.908;37.880;2023-04-01T23:50:18;99178.56;;;4.99;87.71
76590;BME280;65471;55.908;37.880;2023-04-01T23:52:48;99187.63;;;4.98;88.10
76590;BME280;65471;55.908;37.880;2023-04-01T23:57:42;99182.91;;;4.94;88.14
